Pagrindinis puslapis
METAR-TAF:

METAR-TAF

Oro uostai :

Wunstorf, Vokietija

platuma: 52-27N, ilguma: 009-26E, Aukštis: 57 m

Dabartinis oras

Ataskaita buvo paskelbta 18 minutes, ne 10:20 UTC
Vėjas 10 kt iš Rytų
Temperatūra 19°C
Drėgmė 40%
Slėgis 1023 hPa
Matomumas 10 km arba daugiau

METAR: ETNW 311020Z AUTO 08010KT 9999 // ////// 19/05 Q1023 ///

Laikas: 12:38 (10:38 UTC)

Prognozė

Ataskaita buvo paskelbta 23 valandos ir 43 minutes, ne 10:55 UTC
Prognozė galioja nuo 30 metu 11 UTC su 31 metu 11 UTC
Vėjas 8 kt iš Šiaurės Rytų
Matomumas 10 km arba daugiau
Išsisklaidę debesys ne aukštis 7000 ft

TAF: ETNW 301055Z 3011/3111 05008KT 9999 NSW SCT070 BY ETGL

Orai ataskaitas ir orų prognozės (METAR, TAF).

turimą stotys yra geltonos ir raudonos taškus žemėlapyje.

Perkelti pele per norėdami pamatyti stoties vardą.

Tada spustelėkite, norėdami matyti oro stebėjimo ir prognozės.

Norėdami pakeisti žemėlapį: spustelėkite ant žalios mygtukų su juodo kryžiaus žemyn,; žalią mygtuką su brūkšneliu, jei norite nutolinti; arba žalių rodyklių gretimoms žemėlapius.


METAR-TAF: